Time;durP1;ratioP1;P1;durP2;ratioP2;P2;SDS_P1;SDS_P2;PMS_P1;PMS_P2;Temp;Humidity;BMP_temperature;BMP_pressure;BME280_temperature;BME280_humidity;BME280_pressure;Samples;Min_cycle;Max_cycle;Signal;HPM_P1;HPM_P2
2021/09/01 00:02:05;;;;;;;342.88;322.88;;;15.60;99.90;;;;;;5090784;28;20044;-66
2021/09/01 00:04:31;;;;;;;351.40;330.92;;;15.70;99.90;;;;;;5105152;28;20043;-66
2021/09/01 00:06:57;;;;;;;346.23;326.08;;;15.60;99.90;;;;;;5104707;28;20410;-67
2021/09/01 00:09:23;;;;;;;371.30;348.92;;;15.60;99.90;;;;;;5104812;28;20079;-66
2021/09/01 00:11:49;;;;;;;321.55;303.17;;;15.60;99.90;;;;;;5104299;28;20051;-66
2021/09/01 00:14:14;;;;;;;347.88;327.75;;;15.60;99.90;;;;;;5090530;28;20048;-66
2021/09/01 00:16:41;;;;;;;347.23;326.73;;;15.60;99.90;;;;;;5104303;28;20055;-67
2021/09/01 00:19:09;;;;;;;342.35;322.05;;;15.60;99.90;;;;;;5103969;28;20055;-67
2021/09/01 00:21:36;;;;;;;324.05;305.60;;;15.60;99.90;;;;;;5106369;28;20048;-67
2021/09/01 00:24:02;;;;;;;346.02;325.25;;;15.50;99.90;;;;;;5090194;28;20050;-67
2021/09/01 00:26:29;;;;;;;339.73;320.17;;;15.50;99.90;;;;;;5104201;28;20072;-67
2021/09/01 00:28:55;;;;;;;353.98;333.77;;;15.60;99.90;;;;;;5086777;28;20069;-66
2021/09/01 00:31:21;;;;;;;344.50;324.95;;;15.50;99.90;;;;;;5104459;28;20396;-68
2021/09/01 00:33:47;;;;;;;357.20;336.02;;;15.50;99.90;;;;;;5099308;28;20670;-66
2021/09/01 00:36:14;;;;;;;349.63;329.50;;;15.60;99.90;;;;;;5095221;28;20035;-67
2021/09/01 00:38:40;;;;;;;323.77;305.58;;;15.60;99.90;;;;;;5103692;28;20064;-67
2021/09/01 00:41:06;;;;;;;341.05;320.77;;;15.50;99.90;;;;;;5103938;28;20048;-66
2021/09/01 00:43:32;;;;;;;328.15;308.77;;;15.50;99.90;;;;;;5101020;28;20095;-67
2021/09/01 00:45:58;;;;;;;345.40;325.42;;;15.50;99.90;;;;;;5104129;28;20044;-67
2021/09/01 00:48:25;;;;;;;354.83;334.35;;;15.50;99.90;;;;;;5086755;28;20052;-66
2021/09/01 00:50:51;;;;;;;351.70;331.30;;;15.50;99.90;;;;;;5105691;28;20069;-66
2021/09/01 00:53:19;;;;;;;376.50;353.65;;;15.40;99.90;;;;;;5087440;28;20048;-66
2021/09/01 00:55:46;;;;;;;342.63;323.23;;;15.40;99.90;;;;;;5103152;28;20044;-67
2021/09/01 00:58:16;;;;;;;352.05;331.73;;;15.40;99.90;;;;;;5103333;28;20048;-67
2021/09/01 01:03:20;;;;;;;328.35;310.17;;;15.40;99.90;;;;;;5103067;28;20189;-67
2021/09/01 01:05:46;;;;;;;333.20;313.75;;;15.40;99.90;;;;;;5103779;28;20041;-67
2021/09/01 01:08:12;;;;;;;347.63;327.40;;;15.40;99.90;;;;;;5103593;28;20048;-67
2021/09/01 01:10:38;;;;;;;346.13;326.33;;;15.40;99.90;;;;;;5083032;28;20076;-67
2021/09/01 01:13:06;;;;;;;336.50;317.13;;;15.50;99.90;;;;;;5104160;28;20076;-67
2021/09/01 01:15:32;;;;;;;338.73;318.63;;;15.40;99.90;;;;;;5105486;28;20048;-67
2021/09/01 01:17:57;;;;;;;368.88;346.45;;;15.40;99.90;;;;;;5090422;28;20138;-67
2021/09/01 01:20:23;;;;;;;339.65;319.88;;;15.40;99.90;;;;;;5103268;28;20048;-67
2021/09/01 01:22:49;;;;;;;361.98;340.65;;;15.40;99.90;;;;;;5086358;28;20040;-67
2021/09/01 01:25:37;;;;;;;360.42;338.52;;;15.40;99.90;;;;;;5103592;28;20048;-67
2021/09/01 01:28:03;;;;;;;349.17;328.17;;;15.40;99.90;;;;;;5097710;28;20056;-67
2021/09/01 01:30:29;;;;;;;345.48;325.63;;;15.40;99.90;;;;;;5102918;28;20127;-67
2021/09/01 01:32:55;;;;;;;365.17;343.13;;;15.40;99.90;;;;;;5103353;28;20044;-67
2021/09/01 01:35:35;;;;;;;365.33;343.50;;;15.40;99.90;;;;;;5086144;28;20077;-67
2021/09/01 01:38:06;;;;;;;346.92;326.33;;;15.40;99.90;;;;;;5103455;28;20036;-67
2021/09/01 01:40:33;;;;;;;355.30;334.70;;;15.40;99.90;;;;;;5103787;28;20055;-67
2021/09/01 01:42:59;;;;;;;355.85;334.90;;;15.40;99.90;;;;;;5102270;28;20518;-67
2021/09/01 01:45:31;;;;;;;380.58;357.70;;;15.40;99.90;;;;;;5103216;28;20131;-67
2021/09/01 01:47:57;;;;;;;315.98;298.58;;;15.40;99.90;;;;;;5103454;28;20134;-67
2021/09/01 01:50:23;;;;;;;360.75;338.23;;;15.50;99.90;;;;;;5103581;28;20059;-67
2021/09/01 01:52:49;;;;;;;358.95;337.88;;;15.50;99.90;;;;;;5103385;28;20157;-67
2021/09/01 01:55:14;;;;;;;338.75;317.45;;;15.50;99.90;;;;;;5102821;28;20079;-67
2021/09/01 01:57:40;;;;;;;358.08;335.95;;;15.40;99.90;;;;;;5102770;28;20419;-67
2021/09/01 02:00:08;;;;;;;353.42;331.67;;;15.50;99.90;;;;;;5104724;28;20052;-67
2021/09/01 02:02:34;;;;;;;359.00;336.65;;;15.40;99.90;;;;;;5103195;28;20052;-67
2021/09/01 02:05:01;;;;;;;363.25;340.42;;;15.40;99.90;;;;;;5103116;28;20063;-67
2021/09/01 02:07:27;;;;;;;333.08;312.38;;;15.40;99.90;;;;;;5101931;28;20052;-67
2021/09/01 02:09:53;;;;;;;344.65;323.92;;;15.40;99.90;;;;;;5099481;28;20040;-67
2021/09/01 02:12:19;;;;;;;344.80;324.55;;;15.40;99.90;;;;;;5106854;28;20133;-67
2021/09/01 02:14:45;;;;;;;352.13;331.27;;;15.40;99.90;;;;;;5106170;28;20066;-67
2021/09/01 02:17:11;;;;;;;362.15;340.27;;;15.40;99.90;;;;;;5107096;28;20111;-67
2021/09/01 02:19:36;;;;;;;357.50;336.40;;;15.40;99.90;;;;;;5107122;28;20040;-67
2021/09/01 02:22:03;;;;;;;371.02;348.13;;;15.40;99.90;;;;;;5107623;28;20036;-67
2021/09/01 02:24:28;;;;;;;371.15;348.33;;;15.30;99.90;;;;;;5106127;28;20043;-67
2021/09/01 02:26:54;;;;;;;346.67;326.00;;;15.40;99.90;;;;;;5107171;28;20043;-67
2021/09/01 02:29:20;;;;;;;359.30;337.35;;;15.40;99.90;;;;;;5107161;28;20036;-67
2021/09/01 02:31:46;;;;;;;357.45;335.13;;;15.40;99.90;;;;;;5107316;28;20048;-67
2021/09/01 02:34:12;;;;;;;364.77;341.58;;;15.40;99.90;;;;;;5106733;28;20066;-67
2021/09/01 02:36:37;;;;;;;347.70;327.05;;;15.40;99.90;;;;;;5107074;28;20051;-67
2021/09/01 02:39:04;;;;;;;358.92;336.55;;;15.30;99.90;;;;;;5089609;28;20032;-67
2021/09/01 02:41:30;;;;;;;348.08;326.75;;;15.30;99.90;;;;;;5108509;28;20045;-67
2021/09/01 02:43:55;;;;;;;382.83;359.38;;;15.30;99.90;;;;;;5107191;28;20134;-67
2021/09/01 02:46:21;;;;;;;357.33;336.23;;;15.30;99.90;;;;;;5105719;28;20067;-67
2021/09/01 02:48:47;;;;;;;347.60;326.50;;;15.20;99.90;;;;;;5107866;28;20036;-68
2021/09/01 02:51:13;;;;;;;360.55;338.85;;;15.20;99.90;;;;;;5095942;28;20055;-67
2021/09/01 02:53:39;;;;;;;371.83;349.95;;;15.20;99.90;;;;;;5088839;28;20147;-67
2021/09/01 02:56:05;;;;;;;350.77;328.77;;;15.20;99.90;;;;;;5105337;28;20082;-67
2021/09/01 02:58:31;;;;;;;368.17;345.08;;;15.20;99.90;;;;;;5105575;28;20040;-67
2021/09/01 03:00:57;;;;;;;373.27;350.33;;;15.20;99.90;;;;;;5107031;28;20566;-67
2021/09/01 03:03:22;;;;;;;342.85;322.00;;;15.20;99.90;;;;;;5105451;28;20058;-67
2021/09/01 03:05:48;;;;;;;358.77;336.55;;;15.30;99.90;;;;;;5105887;28;20066;-67
2021/09/01 03:08:14;;;;;;;372.83;349.15;;;15.20;99.90;;;;;;5088538;28;20091;-67
2021/09/01 03:10:40;;;;;;;336.95;316.27;;;15.30;99.90;;;;;;5105979;28;20044;-67
2021/09/01 03:13:06;;;;;;;371.23;348.85;;;15.30;99.90;;;;;;5105681;28;20048;-67
2021/09/01 03:15:32;;;;;;;361.75;339.67;;;15.30;99.90;;;;;;5105328;28;20036;-68
2021/09/01 03:17:58;;;;;;;361.70;339.50;;;15.30;99.90;;;;;;5106170;28;20155;-67
2021/09/01 03:20:24;;;;;;;381.15;356.80;;;15.30;99.90;;;;;;5105860;28;20061;-67
2021/09/01 03:22:50;;;;;;;353.50;332.08;;;15.30;99.90;;;;;;5106462;28;20111;-67
2021/09/01 03:25:16;;;;;;;376.20;352.05;;;15.30;99.90;;;;;;5104969;28;20036;-67
2021/09/01 03:27:42;;;;;;;384.10;360.08;;;15.30;99.90;;;;;;5105099;28;20048;-67
2021/09/01 03:30:08;;;;;;;356.83;334.58;;;15.30;99.90;;;;;;5101282;28;20048;-68
2021/09/01 03:32:34;;;;;;;377.00;353.80;;;15.20;99.90;;;;;;5106874;28;20107;-67
2021/09/01 03:35:00;;;;;;;367.17;345.08;;;15.20;99.90;;;;;;5104376;28;20055;-67
2021/09/01 03:37:26;;;;;;;372.83;350.10;;;15.20;99.90;;;;;;5106012;28;20040;-67
2021/09/01 03:39:52;;;;;;;376.70;354.05;;;15.10;99.90;;;;;;5106222;28;20040;-67
2021/09/01 03:42:18;;;;;;;336.60;315.60;;;15.10;99.90;;;;;;5105693;28;20036;-66
2021/09/01 03:44:43;;;;;;;365.70;343.60;;;15.00;99.90;;;;;;5106343;28;20044;-66
2021/09/01 03:47:09;;;;;;;391.63;368.52;;;15.00;99.90;;;;;;5106109;28;20104;-66
2021/09/01 03:49:35;;;;;;;371.58;349.20;;;15.10;99.90;;;;;;5106588;28;20059;-66
2021/09/01 03:52:01;;;;;;;323.05;303.40;;;15.10;99.90;;;;;;5104615;28;20054;-67
2021/09/01 03:54:28;;;;;;;371.23;348.90;;;15.10;99.90;;;;;;5095822;28;20052;-67
2021/09/01 03:56:53;;;;;;;367.48;344.40;;;15.10;99.90;;;;;;5099384;28;20514;-66
2021/09/01 03:59:19;;;;;;;368.50;346.08;;;15.20;99.90;;;;;;5094403;28;20048;-66
2021/09/01 04:01:45;;;;;;;377.33;352.98;;;15.20;99.90;;;;;;5092089;28;20193;-66
2021/09/01 04:04:11;;;;;;;364.13;341.90;;;15.20;99.90;;;;;;5105878;28;20044;-67
2021/09/01 04:06:36;;;;;;;344.65;323.83;;;15.30;99.90;;;;;;5104230;28;20051;-66
2021/09/01 04:09:02;;;;;;;399.80;374.58;;;15.20;99.90;;;;;;5105943;28;20099;-66
2021/09/01 04:11:28;;;;;;;371.40;348.27;;;15.10;99.90;;;;;;5105601;28;20055;-66
2021/09/01 04:13:54;;;;;;;376.35;353.20;;;15.10;99.90;;;;;;5105837;28;20118;-66
2021/09/01 04:16:20;;;;;;;371.33;349.23;;;15.10;99.90;;;;;;5105693;28;20143;-66
2021/09/01 04:18:46;;;;;;;368.75;346.38;;;15.00;99.90;;;;;;5105545;28;20079;-66
2021/09/01 04:21:12;;;;;;;365.23;342.98;;;15.00;99.90;;;;;;5090537;28;20044;-66
2021/09/01 04:23:38;;;;;;;370.60;347.85;;;15.10;99.90;;;;;;5105247;28;20129;-67
2021/09/01 04:26:03;;;;;;;373.92;350.75;;;15.20;99.90;;;;;;5105040;28;20036;-66
2021/09/01 04:28:29;;;;;;;391.52;365.90;;;15.20;99.90;;;;;;5105225;28;20824;-67
2021/09/01 04:30:55;;;;;;;370.20;346.80;;;15.30;99.90;;;;;;5105855;28;20044;-66
2021/09/01 04:33:21;;;;;;;395.73;370.42;;;15.30;99.90;;;;;;5105633;28;20049;-66
2021/09/01 04:35:47;;;;;;;380.17;355.90;;;15.30;99.90;;;;;;5105252;28;20109;-66
2021/09/01 04:38:13;;;;;;;369.52;346.35;;;15.20;99.90;;;;;;5103979;28;20048;-66
2021/09/01 04:40:39;;;;;;;380.85;357.52;;;15.20;99.90;;;;;;5105748;28;20073;-66
2021/09/01 04:43:04;;;;;;;395.58;371.83;;;15.10;99.90;;;;;;5101095;28;20206;-66
2021/09/01 04:45:30;;;;;;;393.35;368.95;;;15.10;99.90;;;;;;5105689;28;20095;-66
2021/09/01 04:47:56;;;;;;;365.58;343.48;;;15.10;99.90;;;;;;5100062;28;20047;-66
2021/09/01 04:50:22;;;;;;;394.65;370.27;;;15.10;99.90;;;;;;5096309;28;20434;-66
2021/09/01 04:52:48;;;;;;;377.40;354.10;;;15.10;99.90;;;;;;5104936;28;20040;-67
2021/09/01 04:55:15;;;;;;;382.27;358.40;;;15.20;99.90;;;;;;5105175;28;20062;-67
2021/09/01 04:57:41;;;;;;;363.00;339.33;;;15.20;99.90;;;;;;5091206;28;20083;-66
2021/09/01 05:00:08;;;;;;;364.20;340.63;;;15.10;99.90;;;;;;5104941;28;20047;-66
2021/09/01 05:02:34;;;;;;;384.95;361.25;;;15.20;99.90;;;;;;5105269;28;20040;-66
2021/09/01 05:04:59;;;;;;;394.90;368.88;;;15.20;99.90;;;;;;5103055;28;20130;-67
2021/09/01 05:07:25;;;;;;;365.38;342.95;;;15.10;99.90;;;;;;5036069;28;20060;-67
2021/09/01 05:09:51;;;;;;;370.10;347.42;;;15.10;99.90;;;;;;5081602;28;20063;-66
2021/09/01 05:12:17;;;;;;;383.83;360.10;;;15.10;99.90;;;;;;5083045;28;20252;-67
2021/09/01 05:14:43;;;;;;;390.88;366.85;;;15.10;99.90;;;;;;5081089;28;20036;-66
2021/09/01 05:17:08;;;;;;;395.23;370.75;;;15.10;99.90;;;;;;5080861;28;20556;-65
2021/09/01 05:19:34;;;;;;;384.92;360.52;;;15.10;99.90;;;;;;5080130;28;20052;-66
2021/09/01 05:22:06;;;;;;;381.45;357.83;;;15.10;99.90;;;;;;5080214;28;20060;-65
2021/09/01 05:24:50;;;;;;;389.83;365.33;;;15.10;99.90;;;;;;5082357;28;20040;-65
2021/09/01 05:27:18;;;;;;;376.92;353.80;;;15.20;99.90;;;;;;5078645;28;20175;-65
2021/09/01 05:29:46;;;;;;;374.67;350.67;;;15.20;99.90;;;;;;5081182;28;20408;-65
2021/09/01 05:32:18;;;;;;;392.35;367.17;;;15.20;99.90;;;;;;5080674;28;20052;-65
2021/09/01 05:34:45;;;;;;;388.38;363.80;;;15.30;99.90;;;;;;5082019;28;20057;-65
2021/09/01 05:37:13;;;;;;;404.23;378.67;;;15.20;99.90;;;;;;5079939;28;20104;-64
2021/09/01 05:39:45;;;;;;;401.90;376.40;;;15.30;99.90;;;;;;5079985;28;20169;-64
2021/09/01 05:42:12;;;;;;;369.30;346.25;;;15.30;99.90;;;;;;5081346;28;20048;-65
2021/09/01 05:44:39;;;;;;;407.63;382.50;;;15.30;99.90;;;;;;5099650;28;20053;-64
2021/09/01 05:47:07;;;;;;;375.48;351.88;;;15.30;99.90;;;;;;5110170;28;20083;-65
2021/09/01 05:49:34;;;;;;;384.45;361.10;;;15.40;99.90;;;;;;5084856;28;20067;-65
2021/09/01 05:52:01;;;;;;;371.85;348.42;;;15.40;99.90;;;;;;5083391;28;20094;-65
2021/09/01 05:54:28;;;;;;;371.05;347.10;;;15.40;99.90;;;;;;5083702;28;20070;-64
2021/09/01 05:57:00;;;;;;;409.85;382.77;;;15.40;99.90;;;;;;5083529;28;20481;-65
2021/09/01 05:59:29;;;;;;;442.50;411.73;;;15.40;99.90;;;;;;5086329;28;20044;-65
2021/09/01 06:02:02;;;;;;;433.65;403.80;;;15.40;99.90;;;;;;5084590;28;20059;-66
2021/09/01 06:04:36;;;;;;;447.42;416.65;;;15.50;99.90;;;;;;5083929;28;20048;-65
2021/09/01 06:07:03;;;;;;;432.20;402.33;;;15.50;99.90;;;;;;5060654;28;20064;-65
2021/09/01 06:09:33;;;;;;;431.20;401.55;;;15.50;99.90;;;;;;5085454;28;20102;-65
2021/09/01 06:12:03;;;;;;;434.77;406.35;;;15.50;99.90;;;;;;5087320;28;20420;-67
2021/09/01 06:14:29;;;;;;;423.00;393.38;;;15.40;99.90;;;;;;5084047;28;20044;-65
2021/09/01 06:16:56;;;;;;;430.10;400.90;;;15.40;99.90;;;;;;5085256;28;20070;-65
2021/09/01 06:19:22;;;;;;;445.20;414.58;;;15.40;99.90;;;;;;5097792;28;20062;-65
2021/09/01 06:21:47;;;;;;;439.92;408.85;;;15.40;99.90;;;;;;5067474;28;20575;-65
2021/09/01 06:24:13;;;;;;;400.90;373.50;;;15.40;99.90;;;;;;5085666;28;20053;-65
2021/09/01 06:26:39;;;;;;;450.67;418.60;;;15.50;99.90;;;;;;5066915;28;20052;-65
2021/09/01 06:29:04;;;;;;;432.42;403.63;;;15.50;99.90;;;;;;5086121;28;20048;-65
2021/09/01 06:31:35;;;;;;;477.80;444.30;;;15.50;99.90;;;;;;5086699;28;20040;-65
2021/09/01 06:34:01;;;;;;;425.52;395.42;;;15.60;99.90;;;;;;5097759;28;20068;-67
2021/09/01 06:36:27;;;;;;;420.65;392.50;;;15.60;99.90;;;;;;5074601;28;20560;-66
2021/09/01 06:38:53;;;;;;;428.17;398.67;;;15.60;99.90;;;;;;5049385;28;20055;-65
2021/09/01 06:41:18;;;;;;;435.65;405.25;;;15.60;99.90;;;;;;5065814;28;20060;-66
2021/09/01 06:43:44;;;;;;;441.05;409.85;;;15.70;99.90;;;;;;5101699;28;20051;-65
2021/09/01 06:46:10;;;;;;;428.55;398.95;;;15.70;99.90;;;;;;5071931;28;20064;-65
2021/09/01 06:48:35;;;;;;;438.35;406.13;;;15.60;99.90;;;;;;5073629;28;20048;-65
2021/09/01 06:51:01;;;;;;;401.90;373.85;;;15.70;99.90;;;;;;5086972;28;20044;-65
2021/09/01 06:53:27;;;;;;;435.42;404.88;;;15.70;99.90;;;;;;5081455;28;20056;-65
2021/09/01 06:55:53;;;;;;;431.52;401.33;;;15.70;99.90;;;;;;5087273;28;20043;-65
2021/09/01 06:58:19;;;;;;;443.90;410.90;;;15.80;99.90;;;;;;5079303;28;20395;-65
2021/09/01 07:00:45;;;;;;;452.85;420.48;;;15.80;99.90;;;;;;5092637;28;20578;-65
2021/09/01 07:03:11;;;;;;;438.33;406.88;;;15.80;99.90;;;;;;5078580;28;20165;-65
2021/09/01 07:05:37;;;;;;;461.83;427.38;;;15.80;99.90;;;;;;5052624;28;20701;-65
2021/09/01 07:08:11;;;;;;;467.45;434.23;;;15.90;99.90;;;;;;5065559;28;20048;-65
2021/09/01 07:10:37;;;;;;;441.35;410.05;;;16.00;99.90;;;;;;5072844;28;20059;-66
2021/09/01 07:13:03;;;;;;;446.25;415.83;;;16.00;99.90;;;;;;5082260;28;20055;-65
2021/09/01 07:15:29;;;;;;;436.88;407.40;;;16.00;99.90;;;;;;5081291;28;20059;-65
2021/09/01 07:17:54;;;;;;;437.10;406.33;;;16.00;99.90;;;;;;5087416;28;20472;-66
2021/09/01 07:20:21;;;;;;;438.67;407.90;;;16.00;99.90;;;;;;5080427;28;20075;-68
2021/09/01 07:22:47;;;;;;;443.63;412.10;;;16.10;99.90;;;;;;5085780;28;20074;-66
2021/09/01 07:25:13;;;;;;;450.75;419.02;;;16.10;99.90;;;;;;5063527;28;20114;-66
2021/09/01 07:27:38;;;;;;;435.42;406.10;;;16.20;99.90;;;;;;5091692;28;20536;-66
2021/09/01 07:30:05;;;;;;;434.55;403.75;;;16.20;99.90;;;;;;5057313;28;20056;-66
2021/09/01 07:32:30;;;;;;;437.38;407.08;;;16.20;99.90;;;;;;5090508;28;20101;-66
2021/09/01 07:34:56;;;;;;;409.38;380.77;;;16.20;99.90;;;;;;5073160;28;20052;-66
2021/09/01 07:37:22;;;;;;;424.30;394.95;;;16.20;99.90;;;;;;5089948;28;20108;-66
2021/09/01 07:39:48;;;;;;;453.70;420.35;;;16.20;99.90;;;;;;5052436;28;20279;-66
2021/09/01 07:42:14;;;;;;;427.58;397.13;;;16.30;99.90;;;;;;5088906;28;20047;-66
2021/09/01 07:44:39;;;;;;;456.77;424.45;;;16.30;99.90;;;;;;5058906;28;20067;-67
2021/09/01 07:47:05;;;;;;;453.48;420.85;;;16.30;99.90;;;;;;5084054;28;20277;-66
2021/09/01 07:49:33;;;;;;;437.70;408.38;;;16.30;99.90;;;;;;5070334;28;20045;-66
2021/09/01 07:51:59;;;;;;;460.58;428.52;;;16.40;99.90;;;;;;5033407;28;20302;-67
2021/09/01 07:54:25;;;;;;;430.90;401.40;;;16.40;99.90;;;;;;5059359;28;20059;-68
2021/09/01 07:56:51;;;;;;;458.80;425.42;;;16.50;99.90;;;;;;5087526;28;20043;-66
2021/09/01 07:59:16;;;;;;;470.70;436.25;;;16.50;99.90;;;;;;5082744;28;20079;-68
2021/09/01 08:01:42;;;;;;;464.88;430.80;;;16.50;99.90;;;;;;5087524;28;20058;-67
2021/09/01 08:04:08;;;;;;;452.15;418.52;;;16.60;99.90;;;;;;5093918;28;20055;-67
2021/09/01 08:06:34;;;;;;;478.08;443.45;;;16.70;99.90;;;;;;5056426;28;20275;-67
2021/09/01 08:08:59;;;;;;;457.80;426.08;;;16.70;99.90;;;;;;5077190;28;20370;-67
2021/09/01 08:11:25;;;;;;;472.90;438.85;;;16.80;99.90;;;;;;5064803;28;20485;-67
2021/09/01 08:13:51;;;;;;;443.95;412.83;;;16.80;99.90;;;;;;5076398;28;20052;-67
2021/09/01 08:16:17;;;;;;;497.85;461.35;;;16.80;99.90;;;;;;5072132;28;20120;-66
2021/09/01 08:18:43;;;;;;;414.80;386.38;;;16.80;99.90;;;;;;5059257;28;20044;-66
2021/09/01 08:21:09;;;;;;;457.58;426.27;;;16.80;99.90;;;;;;5069205;28;20076;-67
2021/09/01 08:23:35;;;;;;;451.55;419.75;;;16.70;99.90;;;;;;5077076;28;20059;-67
2021/09/01 08:26:01;;;;;;;454.67;422.77;;;16.80;99.90;;;;;;5077320;28;20052;-67
2021/09/01 08:28:27;;;;;;;460.52;427.38;;;16.80;99.90;;;;;;5075768;28;20050;-67
2021/09/01 08:30:52;;;;;;;454.35;423.65;;;16.80;99.90;;;;;;5057477;28;20060;-67
2021/09/01 08:33:18;;;;;;;483.85;449.55;;;16.80;99.90;;;;;;5075793;28;20044;-67
2021/09/01 08:35:44;;;;;;;429.88;400.55;;;16.90;99.90;;;;;;5070181;28;20087;-69
2021/09/01 08:38:10;;;;;;;451.05;419.92;;;16.90;99.90;;;;;;5076078;28;20112;-67
2021/09/01 08:40:36;;;;;;;466.27;432.45;;;16.90;99.90;;;;;;5068541;28;20055;-66
2021/09/01 08:43:02;;;;;;;448.25;415.92;;;17.00;99.90;;;;;;5074501;28;20467;-66
2021/09/01 08:45:28;;;;;;;411.13;384.67;;;17.10;99.90;;;;;;5069270;28;20359;-66
2021/09/01 08:47:55;;;;;;;429.88;400.92;;;17.10;99.90;;;;;;5087659;28;20040;-65
2021/09/01 08:50:21;;;;;;;433.25;403.90;;;17.10;99.90;;;;;;5068512;28;20052;-66
2021/09/01 08:52:47;;;;;;;415.13;385.88;;;17.20;99.90;;;;;;5090033;28;20055;-66
2021/09/01 08:55:14;;;;;;;428.63;399.48;;;17.20;99.90;;;;;;5052134;28;20200;-66
2021/09/01 08:57:42;;;;;;;421.55;392.38;;;17.20;99.90;;;;;;5073320;28;20523;-66
2021/09/01 09:00:09;;;;;;;433.98;404.45;;;17.30;99.90;;;;;;5067140;28;20084;-66
2021/09/01 09:02:35;;;;;;;397.13;370.50;;;17.30;99.90;;;;;;5057200;28;20036;-66
2021/09/01 09:05:06;;;;;;;363.90;340.45;;;17.30;99.90;;;;;;5067790;28;20060;-67
2021/09/01 09:07:42;;;;;;;433.17;402.42;;;17.30;99.90;;;;;;5073407;28;20052;-67
2021/09/01 09:10:28;;;;;;;425.52;397.02;;;17.40;99.90;;;;;;5079898;28;20450;-67
2021/09/01 09:13:05;;;;;;;401.95;374.52;;;17.50;99.90;;;;;;5068152;28;20104;-67
2021/09/01 09:15:31;;;;;;;394.45;367.02;;;17.60;99.90;;;;;;5054364;28;20559;-67
2021/09/01 09:17:57;;;;;;;414.33;386.13;;;17.70;99.90;;;;;;5078790;28;20048;-67
2021/09/01 09:20:28;;;;;;;402.60;376.02;;;17.80;99.90;;;;;;5054958;28;20062;-67
2021/09/01 09:22:54;;;;;;;438.20;406.52;;;17.90;99.90;;;;;;5074402;28;20492;-67
2021/09/01 09:25:32;;;;;;;422.40;394.85;;;18.00;99.90;;;;;;5053905;28;20063;-67
2021/09/01 09:28:07;;;;;;;442.30;412.00;;;18.10;99.90;;;;;;5093427;28;20037;-67
2021/09/01 09:30:44;;;;;;;425.45;397.13;;;18.20;99.90;;;;;;5090095;28;20055;-67
2021/09/01 09:33:20;;;;;;;408.38;382.52;;;18.30;99.90;;;;;;5102625;28;20049;-67
2021/09/01 09:36:01;;;;;;;432.27;404.88;;;18.30;99.90;;;;;;5060391;28;20102;-66
2021/09/01 09:38:35;;;;;;;395.08;370.27;;;18.40;99.90;;;;;;5081636;28;20066;-66
2021/09/01 09:41:03;;;;;;;441.67;412.50;;;18.40;99.90;;;;;;5058005;28;20054;-67
2021/09/01 09:43:30;;;;;;;406.58;379.92;;;18.40;99.90;;;;;;5074931;28;20284;-67
2021/09/01 09:46:04;;;;;;;448.77;420.05;;;18.40;99.90;;;;;;5073841;28;20591;-66
2021/09/01 09:48:31;;;;;;;399.27;374.00;;;18.40;99.90;;;;;;5082369;28;20044;-66
2021/09/01 09:50:58;;;;;;;440.80;413.17;;;18.40;99.90;;;;;;5075056;28;20054;-66
2021/09/01 09:53:43;;;;;;;409.80;382.45;;;18.40;99.90;;;;;;5077901;28;20356;-67
2021/09/01 09:56:12;;;;;;;402.00;376.52;;;18.40;99.90;;;;;;5079935;28;20043;-66
2021/09/01 09:58:43;;;;;;;452.37;423.30;;;18.40;99.90;;;;;;5076167;28;20098;-67
2021/09/01 10:01:11;;;;;;;428.33;400.85;;;18.40;99.90;;;;;;5078906;28;20759;-66
2021/09/01 10:03:38;;;;;;;437.38;409.65;;;18.40;99.90;;;;;;5068056;28;20048;-67
2021/09/01 10:06:06;;;;;;;435.45;407.65;;;18.30;99.90;;;;;;5048935;28;20082;-67
2021/09/01 10:08:33;;;;;;;429.77;401.88;;;18.30;99.90;;;;;;5082910;28;20037;-68
2021/09/01 10:11:04;;;;;;;408.77;382.05;;;18.40;99.90;;;;;;5094667;28;20081;-67
2021/09/01 10:13:30;;;;;;;430.95;403.77;;;18.40;99.90;;;;;;5089019;28;20079;-67
2021/09/01 10:16:05;;;;;;;425.83;398.65;;;18.30;99.90;;;;;;5074511;28;20051;-67
2021/09/01 10:18:32;;;;;;;426.55;398.63;;;18.30;99.90;;;;;;5083414;28;20116;-66
2021/09/01 10:20:58;;;;;;;449.95;420.35;;;18.40;99.90;;;;;;5076461;28;20054;-67
2021/09/01 10:23:44;;;;;;;437.63;409.27;;;18.40;99.90;;;;;;5087267;28;20040;-66
2021/09/01 10:26:26;;;;;;;426.70;398.42;;;18.40;99.90;;;;;;5103586;28;20052;-69
2021/09/01 10:28:53;;;;;;;422.02;394.00;;;18.50;99.90;;;;;;5078283;28;20052;-66
2021/09/01 10:31:21;;;;;;;425.42;397.58;;;18.50;99.90;;;;;;5081503;28;20407;-67
2021/09/01 10:33:51;;;;;;;436.17;408.70;;;18.50;99.90;;;;;;5084379;28;20048;-68
2021/09/01 10:36:22;;;;;;;429.98;402.05;;;18.50;99.90;;;;;;5078769;28;20051;-69
2021/09/01 10:38:48;;;;;;;462.80;431.75;;;18.50;99.90;;;;;;5092639;28;20128;-67
2021/09/01 10:41:29;;;;;;;471.42;440.42;;;18.50;99.90;;;;;;5097160;28;20059;-68
2021/09/01 10:44:15;;;;;;;428.25;399.67;;;18.50;99.90;;;;;;5077193;28;20100;-68
2021/09/01 10:46:50;;;;;;;421.27;394.35;;;18.50;99.90;;;;;;5028143;28;20252;-68
2021/09/01 10:49:17;;;;;;;424.77;396.58;;;18.60;99.90;;;;;;5072403;28;20076;-68
2021/09/01 10:51:50;;;;;;;407.42;380.65;;;18.50;99.90;;;;;;5061112;28;20162;-68
2021/09/01 10:54:32;;;;;;;435.55;406.95;;;18.40;99.90;;;;;;5082884;28;20045;-69
2021/09/01 10:57:00;;;;;;;444.33;415.95;;;18.50;99.90;;;;;;5070913;28;20072;-67
2021/09/01 10:59:28;;;;;;;418.67;390.90;;;18.60;99.90;;;;;;5070954;28;20132;-66
2021/09/01 11:02:09;;;;;;;391.90;367.08;;;18.60;99.90;;;;;;5079242;28;20086;-66
2021/09/01 11:04:36;;;;;;;425.80;397.45;;;18.70;99.90;;;;;;5075617;28;20083;-67
2021/09/01 11:07:04;;;;;;;435.60;407.55;;;18.70;99.90;;;;;;5064785;28;20086;-66
2021/09/01 11:09:30;;;;;;;438.17;409.10;;;18.80;99.90;;;;;;5085050;28;20048;-66
2021/09/01 11:11:59;;;;;;;435.60;407.25;;;18.80;99.90;;;;;;5074506;28;20047;-66
2021/09/01 11:14:39;;;;;;;394.48;371.77;;;18.90;99.90;;;;;;5079221;28;20048;-67
2021/09/01 11:17:13;;;;;;;410.00;384.88;;;18.90;99.90;;;;;;5067187;28;20048;-67
2021/09/01 11:19:41;;;;;;;408.52;383.38;;;18.90;99.90;;;;;;5073423;28;20100;-67
2021/09/01 11:22:19;;;;;;;467.77;437.95;;;18.90;99.90;;;;;;5071786;28;20813;-67
2021/09/01 11:25:10;;;;;;;419.08;391.60;;;19.00;99.90;;;;;;5076606;28;20037;-67
2021/09/01 11:27:37;;;;;;;423.73;395.77;;;19.00;99.90;;;;;;5070092;28;20123;-66
2021/09/01 11:30:09;;;;;;;428.35;400.77;;;18.90;99.90;;;;;;5079612;28;20055;-66
2021/09/01 11:32:36;;;;;;;450.02;420.70;;;18.70;99.90;;;;;;5055496;28;20064;-66
2021/09/01 11:35:05;;;;;;;440.85;412.67;;;18.80;99.90;;;;;;5072921;28;20049;-66
2021/09/01 11:37:31;;;;;;;402.13;376.23;;;18.70;99.90;;;;;;5057157;28;20043;-66
2021/09/01 11:39:57;;;;;;;420.50;393.33;;;18.60;99.90;;;;;;5070093;28;20040;-66
2021/09/01 11:42:23;;;;;;;383.55;360.08;;;18.70;99.90;;;;;;5082268;28;20097;-66
2021/09/01 11:44:57;;;;;;;428.42;400.55;;;18.70;99.90;;;;;;5066536;28;20078;-66
2021/09/01 11:47:23;;;;;;;422.02;395.90;;;18.80;99.90;;;;;;5061396;28;20056;-66
2021/09/01 11:49:51;;;;;;;419.75;393.17;;;18.90;99.90;;;;;;5056692;28;20047;-66
2021/09/01 11:52:29;;;;;;;419.75;393.65;;;18.90;99.90;;;;;;5064831;28;20166;-66
2021/09/01 11:54:55;;;;;;;415.48;388.85;;;18.90;99.90;;;;;;5057340;28;20044;-66
2021/09/01 11:57:29;;;;;;;428.35;400.75;;;18.90;99.90;;;;;;5044071;28;20047;-66
2021/09/01 12:00:00;;;;;;;416.52;390.70;;;18.70;99.90;;;;;;5067899;28;20711;-66
2021/09/01 12:02:31;;;;;;;402.15;377.50;;;18.80;99.90;;;;;;5079559;28;20047;-66
2021/09/01 12:04:57;;;;;;;425.98;398.17;;;18.90;99.90;;;;;;5094722;28;20055;-66
2021/09/01 12:07:28;;;;;;;406.58;381.80;;;19.00;99.90;;;;;;5072925;28;20109;-66
2021/09/01 12:10:06;;;;;;;423.17;396.05;;;19.00;99.90;;;;;;5072485;28;20048;-67
2021/09/01 12:12:34;;;;;;;397.33;372.30;;;18.90;99.90;;;;;;5081347;28;20052;-67
2021/09/01 12:15:15;;;;;;;408.00;381.98;;;18.90;99.90;;;;;;5095397;28;20403;-67